sensor_id;sensor_type;location;lat;lon;timestamp;pressure;altitude;pressure_sealevel;temperature;humidity
23953;BME280;12163;49.316;6.092;2022-10-23T00:00:58;99304.56;;;14.67;92.96
23953;BME280;12163;49.316;6.092;2022-10-23T00:03:25;99305.03;;;14.69;93.00
23953;BME280;12163;49.316;6.092;2022-10-23T00:05:52;99295.59;;;14.66;92.89
23953;BME280;12163;49.316;6.092;2022-10-23T00:08:18;99306.16;;;14.68;93.01
23953;BME280;12163;49.316;6.092;2022-10-23T00:10:45;99295.28;;;14.68;92.93
23953;BME280;12163;49.316;6.092;2022-10-23T00:13:12;99285.53;;;14.67;92.54
23953;BME280;12163;49.316;6.092;2022-10-23T00:15:38;99290.97;;;14.67;92.99
23953;BME280;12163;49.316;6.092;2022-10-23T00:18:05;99278.50;;;14.66;92.57
23953;BME280;12163;49.316;6.092;2022-10-23T00:20:31;99274.16;;;14.65;92.79
23953;BME280;12163;49.316;6.092;2022-10-23T00:22:58;99264.44;;;14.64;92.69
23953;BME280;12163;49.316;6.092;2022-10-23T00:25:24;99265.53;;;14.63;92.61
23953;BME280;12163;49.316;6.092;2022-10-23T00:27:51;99279.47;;;14.61;92.63
23953;BME280;12163;49.316;6.092;2022-10-23T00:30:18;99273.22;;;14.61;92.72
23953;BME280;12163;49.316;6.092;2022-10-23T00:32:44;99279.13;;;14.63;92.61
23953;BME280;12163;49.316;6.092;2022-10-23T00:35:11;99279.13;;;14.63;92.38
23953;BME280;12163;49.316;6.092;2022-10-23T00:37:37;99275.28;;;14.64;92.57
23953;BME280;12163;49.316;6.092;2022-10-23T00:40:04;99270.19;;;14.62;92.34
23953;BME280;12163;49.316;6.092;2022-10-23T00:42:31;99272.44;;;14.60;92.38
23953;BME280;12163;49.316;6.092;2022-10-23T00:45:28;99266.34;;;14.55;92.37
23953;BME280;12163;49.316;6.092;2022-10-23T00:47:59;99259.50;;;14.57;92.24
23953;BME280;12163;49.316;6.092;2022-10-23T00:50:29;99256.28;;;14.55;92.03
23953;BME280;12163;49.316;6.092;2022-10-23T00:52:58;99253.88;;;14.54;92.27
23953;BME280;12163;49.316;6.092;2022-10-23T00:55:26;99253.88;;;14.54;92.17
23953;BME280;12163;49.316;6.092;2022-10-23T00:57:53;99256.91;;;14.52;92.00
23953;BME280;12163;49.316;6.092;2022-10-23T01:00:26;99249.09;;;14.51;92.16
23953;BME280;12163;49.316;6.092;2022-10-23T01:02:54;99253.22;;;14.48;91.89
23953;BME280;12163;49.316;6.092;2022-10-23T01:05:26;99262.81;;;14.46;91.83
23953;BME280;12163;49.316;6.092;2022-10-23T01:08:01;99272.69;;;14.42;92.05
23953;BME280;12163;49.316;6.092;2022-10-23T01:10:53;99274.16;;;14.39;92.04
23953;BME280;12163;49.316;6.092;2022-10-23T01:16:13;99265.19;;;14.39;92.03
23953;BME280;12163;49.316;6.092;2022-10-23T01:21:22;99260.88;;;14.38;91.85
23953;BME280;12163;49.316;6.092;2022-10-23T01:27:12;99247.94;;;14.35;91.85
23953;BME280;12163;49.316;6.092;2022-10-23T01:29:47;99237.09;;;14.35;92.07
23953;BME280;12163;49.316;6.092;2022-10-23T01:32:16;99231.66;;;14.35;92.23
23953;BME280;12163;49.316;6.092;2022-10-23T01:34:50;99238.19;;;14.34;92.39
23953;BME280;12163;49.316;6.092;2022-10-23T01:37:22;99230.88;;;14.34;92.08
23953;BME280;12163;49.316;6.092;2022-10-23T01:39:52;99235.50;;;14.34;91.99
23953;BME280;12163;49.316;6.092;2022-10-23T01:42:24;99240.44;;;14.32;92.00
23953;BME280;12163;49.316;6.092;2022-10-23T01:45:07;99245.88;;;14.32;92.14
23953;BME280;12163;49.316;6.092;2022-10-23T01:47:35;99238.84;;;14.31;92.07
23953;BME280;12163;49.316;6.092;2022-10-23T01:50:04;99223.03;;;14.33;91.96
23953;BME280;12163;49.316;6.092;2022-10-23T01:52:31;99222.72;;;14.34;92.22
23953;BME280;12163;49.316;6.092;2022-10-23T01:55:00;99220.31;;;14.33;92.03
23953;BME280;12163;49.316;6.092;2022-10-23T01:57:29;99224.63;;;14.34;91.87
23953;BME280;12163;49.316;6.092;2022-10-23T02:00:00;99211.06;;;14.34;91.79
23953;BME280;12163;49.316;6.092;2022-10-23T02:02:29;99209.47;;;14.33;91.57
23953;BME280;12163;49.316;6.092;2022-10-23T02:05:08;99210.88;;;14.30;91.73
23953;BME280;12163;49.316;6.092;2022-10-23T02:07:37;99204.66;;;14.30;91.90
23953;BME280;12163;49.316;6.092;2022-10-23T02:10:05;99207.69;;;14.28;91.79
23953;BME280;12163;49.316;6.092;2022-10-23T02:13:05;99208.31;;;14.25;91.33
23953;BME280;12163;49.316;6.092;2022-10-23T02:15:40;99195.09;;;14.24;91.72
23953;BME280;12163;49.316;6.092;2022-10-23T02:21:13;99196.94;;;14.15;91.44
23953;BME280;12163;49.316;6.092;2022-10-23T02:26:30;99197.56;;;14.12;91.35
23953;BME280;12163;49.316;6.092;2022-10-23T02:29:14;99197.09;;;14.10;91.98
23953;BME280;12163;49.316;6.092;2022-10-23T02:31:43;99191.19;;;14.08;91.80
23953;BME280;12163;49.316;6.092;2022-10-23T02:34:10;99211.31;;;14.07;91.69
23953;BME280;12163;49.316;6.092;2022-10-23T02:36:37;99202.69;;;14.05;91.60
23953;BME280;12163;49.316;6.092;2022-10-23T02:39:04;99194.53;;;14.05;91.72
23953;BME280;12163;49.316;6.092;2022-10-23T02:41:48;99200.91;;;14.00;91.54
23953;BME280;12163;49.316;6.092;2022-10-23T02:51:56;99188.59;;;13.94;91.61
23953;BME280;12163;49.316;6.092;2022-10-23T02:54:30;99190.34;;;13.90;91.67
23953;BME280;12163;49.316;6.092;2022-10-23T02:57:08;99188.59;;;13.86;91.24
23953;BME280;12163;49.316;6.092;2022-10-23T02:59:54;99181.22;;;13.78;91.18
23953;BME280;12163;49.316;6.092;2022-10-23T03:04:59;99172.59;;;13.76;91.66
23953;BME280;12163;49.316;6.092;2022-10-23T03:07:27;99167.78;;;13.73;91.71
23953;BME280;12163;49.316;6.092;2022-10-23T03:09:53;99171.78;;;13.67;91.27
23953;BME280;12163;49.316;6.092;2022-10-23T03:12:20;99171.59;;;13.63;91.87
23953;BME280;12163;49.316;6.092;2022-10-23T03:14:46;99171.44;;;13.60;91.26
23953;BME280;12163;49.316;6.092;2022-10-23T03:17:13;99159.94;;;13.54;91.50
23953;BME280;12163;49.316;6.092;2022-10-23T03:19:40;99163.75;;;13.53;91.58
23953;BME280;12163;49.316;6.092;2022-10-23T03:22:06;99152.41;;;13.51;91.88
23953;BME280;12163;49.316;6.092;2022-10-23T03:24:33;99147.28;;;13.50;92.05
23953;BME280;12163;49.316;6.092;2022-10-23T03:26:59;99157.34;;;13.49;91.69
23953;BME280;12163;49.316;6.092;2022-10-23T03:29:26;99153.84;;;13.49;91.66
23953;BME280;12163;49.316;6.092;2022-10-23T03:31:52;99156.53;;;13.49;92.40
23953;BME280;12163;49.316;6.092;2022-10-23T03:34:20;99151.13;;;13.49;92.76
23953;BME280;12163;49.316;6.092;2022-10-23T03:36:47;99140.28;;;13.49;92.63
23953;BME280;12163;49.316;6.092;2022-10-23T03:39:13;99139.66;;;13.52;92.74
23953;BME280;12163;49.316;6.092;2022-10-23T03:41:40;99136.63;;;13.53;92.74
23953;BME280;12163;49.316;6.092;2022-10-23T03:44:07;99135.03;;;13.52;92.41
23953;BME280;12163;49.316;6.092;2022-10-23T03:46:33;99126.91;;;13.52;92.50
23953;BME280;12163;49.316;6.092;2022-10-23T03:49:00;99128.81;;;13.52;93.16
23953;BME280;12163;49.316;6.092;2022-10-23T03:51:26;99131.53;;;13.52;93.26
23953;BME280;12163;49.316;6.092;2022-10-23T03:53:53;99128.81;;;13.52;93.57
23953;BME280;12163;49.316;6.092;2022-10-23T03:56:20;99126.59;;;13.54;93.03
23953;BME280;12163;49.316;6.092;2022-10-23T03:58:46;99120.56;;;13.57;93.67
23953;BME280;12163;49.316;6.092;2022-10-23T04:01:13;99113.69;;;13.59;93.67
23953;BME280;12163;49.316;6.092;2022-10-23T04:03:40;99103.66;;;13.60;93.95
23953;BME280;12163;49.316;6.092;2022-10-23T04:06:06;99106.50;;;13.63;93.15
23953;BME280;12163;49.316;6.092;2022-10-23T04:08:33;99104.78;;;13.67;93.41
23953;BME280;12163;49.316;6.092;2022-10-23T04:11:00;99099.38;;;13.67;93.24
23953;BME280;12163;49.316;6.092;2022-10-23T04:13:26;99101.75;;;13.69;93.10
23953;BME280;12163;49.316;6.092;2022-10-23T04:15:53;99094.72;;;13.68;93.22
23953;BME280;12163;49.316;6.092;2022-10-23T04:18:19;99093.94;;;13.67;93.54
23953;BME280;12163;49.316;6.092;2022-10-23T04:20:47;99100.16;;;13.68;93.36
23953;BME280;12163;49.316;6.092;2022-10-23T04:23:14;99090.13;;;13.68;93.10
23953;BME280;12163;49.316;6.092;2022-10-23T04:25:41;99093.94;;;13.67;93.57
23953;BME280;12163;49.316;6.092;2022-10-23T04:28:08;99086.41;;;13.64;93.63
23953;BME280;12163;49.316;6.092;2022-10-23T04:30:34;99086.75;;;13.63;93.10
23953;BME280;12163;49.316;6.092;2022-10-23T04:33:01;99084.34;;;13.61;93.27
23953;BME280;12163;49.316;6.092;2022-10-23T04:35:27;99085.47;;;13.60;92.98
23953;BME280;12163;49.316;6.092;2022-10-23T04:37:54;99090.72;;;13.57;93.21
23953;BME280;12163;49.316;6.092;2022-10-23T04:40:20;99093.75;;;13.55;93.53
23953;BME280;12163;49.316;6.092;2022-10-23T04:42:47;99087.84;;;13.53;92.94
23953;BME280;12163;49.316;6.092;2022-10-23T04:45:13;99091.97;;;13.51;93.63
23953;BME280;12163;49.316;6.092;2022-10-23T04:47:40;99088.31;;;13.47;92.84
23953;BME280;12163;49.316;6.092;2022-10-23T04:50:07;99095.31;;;13.48;93.04
23953;BME280;12163;49.316;6.092;2022-10-23T04:52:33;99094.53;;;13.48;93.33
23953;BME280;12163;49.316;6.092;2022-10-23T04:55:00;99083.50;;;13.44;93.11
23953;BME280;12163;49.316;6.092;2022-10-23T04:57:26;99085.75;;;13.42;93.46
23953;BME280;12163;49.316;6.092;2022-10-23T04:59:53;99076.00;;;13.41;93.01
23953;BME280;12163;49.316;6.092;2022-10-23T05:02:19;99072.75;;;13.78;94.19
23953;BME280;12163;49.316;6.092;2022-10-23T05:04:46;99074.88;;;14.23;94.23
23953;BME280;12163;49.316;6.092;2022-10-23T05:07:12;99077.22;;;14.59;93.57
23953;BME280;12163;49.316;6.092;2022-10-23T05:09:39;99073.00;;;14.87;92.70
23953;BME280;12163;49.316;6.092;2022-10-23T05:12:05;99061.28;;;15.12;91.30
23953;BME280;12163;49.316;6.092;2022-10-23T05:14:32;99062.28;;;15.27;90.09
23953;BME280;12163;49.316;6.092;2022-10-23T05:17:04;99058.88;;;15.47;89.16
23953;BME280;12163;49.316;6.092;2022-10-23T05:19:38;99049.94;;;15.67;88.01
23953;BME280;12163;49.316;6.092;2022-10-23T05:22:08;99052.75;;;15.79;86.54
23953;BME280;12163;49.316;6.092;2022-10-23T05:24:34;99055.13;;;15.81;86.53
23953;BME280;12163;49.316;6.092;2022-10-23T05:27:01;99056.41;;;15.83;85.90
23953;BME280;12163;49.316;6.092;2022-10-23T05:29:28;99056.22;;;15.88;85.34
23953;BME280;12163;49.316;6.092;2022-10-23T05:31:57;99061.28;;;15.98;85.30
23953;BME280;12163;49.316;6.092;2022-10-23T05:34:26;99056.09;;;16.05;84.07
23953;BME280;12163;49.316;6.092;2022-10-23T05:36:55;99043.41;;;16.09;82.43
23953;BME280;12163;49.316;6.092;2022-10-23T05:39:22;99046.25;;;16.13;81.09
23953;BME280;12163;49.316;6.092;2022-10-23T05:41:48;99041.59;;;16.13;80.39
23953;BME280;12163;49.316;6.092;2022-10-23T05:44:16;99034.78;;;16.07;79.51
23953;BME280;12163;49.316;6.092;2022-10-23T05:46:43;99025.22;;;16.01;79.57
23953;BME280;12163;49.316;6.092;2022-10-23T05:49:09;99026.53;;;15.95;79.73
23953;BME280;12163;49.316;6.092;2022-10-23T05:51:37;99019.72;;;15.89;79.30
23953;BME280;12163;49.316;6.092;2022-10-23T05:54:04;99029.19;;;15.83;78.98
23953;BME280;12163;49.316;6.092;2022-10-23T05:56:38;99025.22;;;15.81;78.98
23953;BME280;12163;49.316;6.092;2022-10-23T05:59:07;99022.16;;;15.82;79.42
23953;BME280;12163;49.316;6.092;2022-10-23T06:01:34;99022.28;;;15.86;78.67
23953;BME280;12163;49.316;6.092;2022-10-23T06:04:02;99028.06;;;15.84;78.88
23953;BME280;12163;49.316;6.092;2022-10-23T06:06:29;99026.94;;;15.85;78.84
23953;BME280;12163;49.316;6.092;2022-10-23T06:08:56;99025.16;;;15.89;77.75
23953;BME280;12163;49.316;6.092;2022-10-23T06:11:22;99021.16;;;15.87;77.77
23953;BME280;12163;49.316;6.092;2022-10-23T06:13:49;99022.09;;;15.91;78.15
23953;BME280;12163;49.316;6.092;2022-10-23T06:16:18;99018.13;;;15.88;77.90
23953;BME280;12163;49.316;6.092;2022-10-23T06:18:46;99021.28;;;15.90;77.73
23953;BME280;12163;49.316;6.092;2022-10-23T06:21:14;99017.34;;;15.88;77.89
23953;BME280;12163;49.316;6.092;2022-10-23T06:23:42;99019.56;;;15.86;77.74
23953;BME280;12163;49.316;6.092;2022-10-23T06:26:11;99013.34;;;15.85;77.19
23953;BME280;12163;49.316;6.092;2022-10-23T06:28:38;99030.34;;;15.82;76.92
23953;BME280;12163;49.316;6.092;2022-10-23T06:31:06;99029.53;;;15.82;77.14
23953;BME280;12163;49.316;6.092;2022-10-23T06:33:33;99031.00;;;15.79;77.46
23953;BME280;12163;49.316;6.092;2022-10-23T06:36:00;99030.34;;;15.82;77.67
23953;BME280;12163;49.316;6.092;2022-10-23T06:38:28;99036.94;;;15.93;77.41
23953;BME280;12163;49.316;6.092;2022-10-23T06:41:02;99030.97;;;16.00;76.59
23953;BME280;12163;49.316;6.092;2022-10-23T06:43:29;99017.97;;;16.05;76.62
23953;BME280;12163;49.316;6.092;2022-10-23T06:45:59;99018.66;;;16.02;76.53
23953;BME280;12163;49.316;6.092;2022-10-23T06:48:26;99016.84;;;16.06;76.36
23953;BME280;12163;49.316;6.092;2022-10-23T06:50:52;99020.81;;;16.09;76.65
23953;BME280;12163;49.316;6.092;2022-10-23T06:53:19;99012.56;;;16.17;76.29
23953;BME280;12163;49.316;6.092;2022-10-23T06:55:46;99012.38;;;16.22;75.96
23953;BME280;12163;49.316;6.092;2022-10-23T06:58:18;98996.97;;;16.26;77.36
23953;BME280;12163;49.316;6.092;2022-10-23T07:00:44;98999.06;;;16.41;76.39
23953;BME280;12163;49.316;6.092;2022-10-23T07:03:12;98996.84;;;16.43;76.30
23953;BME280;12163;49.316;6.092;2022-10-23T07:05:39;98999.56;;;16.43;76.12
23953;BME280;12163;49.316;6.092;2022-10-23T07:08:06;98994.25;;;16.26;75.81
23953;BME280;12163;49.316;6.092;2022-10-23T07:10:33;99015.56;;;16.04;75.88
23953;BME280;12163;49.316;6.092;2022-10-23T07:12:59;99014.94;;;15.86;76.49
23953;BME280;12163;49.316;6.092;2022-10-23T07:15:26;99023.81;;;15.75;77.34
23953;BME280;12163;49.316;6.092;2022-10-23T07:17:53;99023.88;;;15.66;78.03
23953;BME280;12163;49.316;6.092;2022-10-23T07:20:20;99035.47;;;15.55;78.14
23953;BME280;12163;49.316;6.092;2022-10-23T07:22:54;99023.97;;;15.49;79.10
23953;BME280;12163;49.316;6.092;2022-10-23T07:25:23;99018.22;;;15.51;79.23
23953;BME280;12163;49.316;6.092;2022-10-23T07:27:51;99011.66;;;15.52;79.14
23953;BME280;12163;49.316;6.092;2022-10-23T07:30:20;99014.69;;;15.50;79.61
23953;BME280;12163;49.316;6.092;2022-10-23T07:32:47;99014.22;;;15.48;80.39
23953;BME280;12163;49.316;6.092;2022-10-23T07:35:14;99021.00;;;15.42;80.19
23953;BME280;12163;49.316;6.092;2022-10-23T07:37:45;99015.94;;;15.32;80.14
23953;BME280;12163;49.316;6.092;2022-10-23T07:40:12;99008.31;;;15.18;80.36
23953;BME280;12163;49.316;6.092;2022-10-23T07:42:39;99002.09;;;15.09;81.23
23953;BME280;12163;49.316;6.092;2022-10-23T07:45:06;98999.13;;;15.02;81.53
23953;BME280;12163;49.316;6.092;2022-10-23T07:47:33;99007.59;;;15.00;82.10
23953;BME280;12163;49.316;6.092;2022-10-23T07:50:00;99002.81;;;14.97;82.35
23953;BME280;12163;49.316;6.092;2022-10-23T07:52:27;99002.81;;;14.97;82.56
23953;BME280;12163;49.316;6.092;2022-10-23T07:55:00;99002.69;;;14.94;82.69
23953;BME280;12163;49.316;6.092;2022-10-23T07:57:27;98989.09;;;14.94;82.97
23953;BME280;12163;49.316;6.092;2022-10-23T07:59:53;98989.41;;;14.92;83.18
23953;BME280;12163;49.316;6.092;2022-10-23T08:02:20;98987.97;;;14.95;83.37
23953;BME280;12163;49.316;6.092;2022-10-23T08:04:49;98972.59;;;14.99;83.42
23953;BME280;12163;49.316;6.092;2022-10-23T08:07:16;98992.09;;;15.01;83.18
23953;BME280;12163;49.316;6.092;2022-10-23T08:09:42;99002.31;;;15.04;83.09
23953;BME280;12163;49.316;6.092;2022-10-23T08:12:09;98993.19;;;15.08;83.26
23953;BME280;12163;49.316;6.092;2022-10-23T08:14:36;98993.31;;;15.12;83.34
23953;BME280;12163;49.316;6.092;2022-10-23T08:17:02;98983.38;;;15.16;83.13
23953;BME280;12163;49.316;6.092;2022-10-23T08:19:31;98994.25;;;15.16;82.92
23953;BME280;12163;49.316;6.092;2022-10-23T08:21:57;98965.59;;;15.18;83.12
23953;BME280;12163;49.316;6.092;2022-10-23T08:24:24;98969.59;;;15.20;83.00
23953;BME280;12163;49.316;6.092;2022-10-23T08:26:50;98974.22;;;15.28;83.20
23953;BME280;12163;49.316;6.092;2022-10-23T08:29:17;98944.59;;;15.35;83.55
23953;BME280;12163;49.316;6.092;2022-10-23T08:31:43;98937.84;;;15.41;83.37
23953;BME280;12163;49.316;6.092;2022-10-23T08:34:10;98937.16;;;15.44;83.26
23953;BME280;12163;49.316;6.092;2022-10-23T08:36:37;98942.28;;;15.46;83.24
23953;BME280;12163;49.316;6.092;2022-10-23T08:39:05;98924.50;;;15.48;83.11
23953;BME280;12163;49.316;6.092;2022-10-23T08:41:46;98919.53;;;15.50;83.10
23953;BME280;12163;49.316;6.092;2022-10-23T08:47:03;98925.56;;;15.56;83.35
23953;BME280;12163;49.316;6.092;2022-10-23T08:49:44;98918.31;;;15.60;82.95
23953;BME280;12163;49.316;6.092;2022-10-23T08:52:31;98923.91;;;15.63;83.14
23953;BME280;12163;49.316;6.092;2022-10-23T08:55:08;98916.47;;;15.72;82.75
23953;BME280;12163;49.316;6.092;2022-10-23T08:57:46;98919.00;;;15.77;82.56
23953;BME280;12163;49.316;6.092;2022-10-23T09:00:17;98916.84;;;15.83;82.45
23953;BME280;12163;49.316;6.092;2022-10-23T09:02:46;98915.38;;;15.85;82.20
23953;BME280;12163;49.316;6.092;2022-10-23T09:08:35;98907.00;;;15.90;82.56
23953;BME280;12163;49.316;6.092;2022-10-23T09:13:40;98909.44;;;16.04;82.07
23953;BME280;12163;49.316;6.092;2022-10-23T09:18:54;98901.78;;;16.18;81.23
23953;BME280;12163;49.316;6.092;2022-10-23T09:21:28;98898.50;;;16.24;81.22
23953;BME280;12163;49.316;6.092;2022-10-23T09:23:55;98884.31;;;16.31;81.33
23953;BME280;12163;49.316;6.092;2022-10-23T09:26:22;98884.25;;;16.39;80.84
23953;BME280;12163;49.316;6.092;2022-10-23T09:28:51;98874.84;;;16.49;80.64
23953;BME280;12163;49.316;6.092;2022-10-23T09:31:20;98871.78;;;16.62;80.60
23953;BME280;12163;49.316;6.092;2022-10-23T09:34:00;98873.25;;;16.72;79.57
23953;BME280;12163;49.316;6.092;2022-10-23T09:36:27;98877.38;;;16.78;79.22
23953;BME280;12163;49.316;6.092;2022-10-23T09:38:57;98878.16;;;16.78;78.82
23953;BME280;12163;49.316;6.092;2022-10-23T09:41:35;98873.59;;;16.82;78.48
23953;BME280;12163;49.316;6.092;2022-10-23T09:46:43;98883.47;;;16.98;78.54
23953;BME280;12163;49.316;6.092;2022-10-23T09:49:25;98884.38;;;17.02;78.34
23953;BME280;12163;49.316;6.092;2022-10-23T09:51:59;98872.09;;;17.08;77.52
23953;BME280;12163;49.316;6.092;2022-10-23T09:54:30;98865.56;;;17.25;78.25
23953;BME280;12163;49.316;6.092;2022-10-23T09:57:02;98862.16;;;17.40;76.74
23953;BME280;12163;49.316;6.092;2022-10-23T09:59:31;98858.50;;;17.48;76.44
23953;BME280;12163;49.316;6.092;2022-10-23T10:02:01;98850.97;;;17.57;75.96
23953;BME280;12163;49.316;6.092;2022-10-23T10:04:39;98854.78;;;17.68;75.78
23953;BME280;12163;49.316;6.092;2022-10-23T10:07:17;98844.25;;;17.82;75.66
23953;BME280;12163;49.316;6.092;2022-10-23T10:09:45;98848.50;;;17.95;76.27
23953;BME280;12163;49.316;6.092;2022-10-23T10:15:25;98869.03;;;18.20;75.89
23953;BME280;12163;49.316;6.092;2022-10-23T10:26:43;98872.97;;;18.80;72.75
23953;BME280;12163;49.316;6.092;2022-10-23T10:43:38;98859.66;;;19.48;71.32
23953;BME280;12163;49.316;6.092;2022-10-23T10:46:43;98859.16;;;19.61;70.56
23953;BME280;12163;49.316;6.092;2022-10-23T10:49:11;98859.38;;;19.72;69.56
23953;BME280;12163;49.316;6.092;2022-10-23T10:57:41;98848.97;;;20.00;69.39
23953;BME280;12163;49.316;6.092;2022-10-23T11:00:14;98840.38;;;20.20;69.19
23953;BME280;12163;49.316;6.092;2022-10-23T11:02:48;98841.41;;;20.35;67.74
23953;BME280;12163;49.316;6.092;2022-10-23T11:07:58;98818.63;;;20.53;67.21
23953;BME280;12163;49.316;6.092;2022-10-23T11:10:26;98823.91;;;20.65;66.48
23953;BME280;12163;49.316;6.092;2022-10-23T11:12:55;98816.63;;;20.76;65.85
23953;BME280;12163;49.316;6.092;2022-10-23T11:15:28;98812.13;;;20.87;66.14
23953;BME280;12163;49.316;6.092;2022-10-23T11:18:02;98799.50;;;21.08;66.64
23953;BME280;12163;49.316;6.092;2022-10-23T11:20:56;98785.25;;;21.29;66.06
23953;BME280;12163;49.316;6.092;2022-10-23T11:29:17;98757.06;;;21.65;65.79
23953;BME280;12163;49.316;6.092;2022-10-23T11:34:39;98729.75;;;21.79;64.31
23953;BME280;12163;49.316;6.092;2022-10-23T11:37:15;98725.91;;;21.87;64.76
23953;BME280;12163;49.316;6.092;2022-10-23T11:39:58;98721.72;;;22.00;64.64
23953;BME280;12163;49.316;6.092;2022-10-23T11:42:46;98734.44;;;22.18;63.99
23953;BME280;12163;49.316;6.092;2022-10-23T11:45:36;98717.31;;;22.38;63.26
23953;BME280;12163;49.316;6.092;2022-10-23T11:56:03;98706.91;;;22.72;62.14
23953;BME280;12163;49.316;6.092;2022-10-23T11:58:54;98708.09;;;22.71;62.37
23953;BME280;12163;49.316;6.092;2022-10-23T12:01:29;98710.44;;;22.65;62.59
23953;BME280;12163;49.316;6.092;2022-10-23T12:04:22;98699.84;;;22.67;62.58
23953;BME280;12163;49.316;6.092;2022-10-23T12:06:59;98703.41;;;22.75;62.73
23953;BME280;12163;49.316;6.092;2022-10-23T12:14:47;98697.66;;;23.08;62.56
23953;BME280;12163;49.316;6.092;2022-10-23T12:17:28;98685.56;;;23.26;62.95
23953;BME280;12163;49.316;6.092;2022-10-23T12:31:01;98666.41;;;23.89;59.63
23953;BME280;12163;49.316;6.092;2022-10-23T12:33:36;98664.06;;;24.02;59.44
23953;BME280;12163;49.316;6.092;2022-10-23T12:38:57;98651.84;;;24.20;57.94
23953;BME280;12163;49.316;6.092;2022-10-23T12:41:28;98643.97;;;24.22;57.75
23953;BME280;12163;49.316;6.092;2022-10-23T12:43:59;98635.28;;;24.27;57.55
23953;BME280;12163;49.316;6.092;2022-10-23T12:46:39;98634.06;;;24.35;57.69
23953;BME280;12163;49.316;6.092;2022-10-23T12:49:21;98630.91;;;24.40;57.17
23953;BME280;12163;49.316;6.092;2022-10-23T12:52:02;98620.69;;;24.37;57.17
23953;BME280;12163;49.316;6.092;2022-10-23T12:54:31;98621.88;;;24.43;56.61
23953;BME280;12163;49.316;6.092;2022-10-23T12:56:58;98619.50;;;24.45;56.21
23953;BME280;12163;49.316;6.092;2022-10-23T12:59:27;98613.16;;;24.48;56.66
23953;BME280;12163;49.316;6.092;2022-10-23T13:01:56;98615.53;;;24.46;56.32
23953;BME280;12163;49.316;6.092;2022-10-23T13:04:29;98608.06;;;24.43;55.82
23953;BME280;12163;49.316;6.092;2022-10-23T13:07:01;98595.81;;;24.47;54.88
23953;BME280;12163;49.316;6.092;2022-10-23T13:12:01;98595.84;;;24.40;55.13
23953;BME280;12163;49.316;6.092;2022-10-23T13:14:36;98596.66;;;24.37;54.78
23953;BME280;12163;49.316;6.092;2022-10-23T13:17:10;98600.59;;;24.36;54.63
23953;BME280;12163;49.316;6.092;2022-10-23T13:19:37;98601.41;;;24.30;54.84
23953;BME280;12163;49.316;6.092;2022-10-23T13:22:16;98587.25;;;24.21;54.75
23953;BME280;12163;49.316;6.092;2022-10-23T13:24:43;98586.47;;;24.10;55.16
23953;BME280;12163;49.316;6.092;2022-10-23T13:27:32;98588.84;;;23.94;55.14
23953;BME280;12163;49.316;6.092;2022-10-23T13:29:59;98577.44;;;23.96;56.08
23953;BME280;12163;49.316;6.092;2022-10-23T13:32:28;98577.03;;;24.04;55.68
23953;BME280;12163;49.316;6.092;2022-10-23T13:34:56;98574.25;;;24.11;54.89
23953;BME280;12163;49.316;6.092;2022-10-23T13:37:42;98572.28;;;24.15;55.33
23953;BME280;12163;49.316;6.092;2022-10-23T13:40:23;98570.72;;;24.07;54.88
23953;BME280;12163;49.316;6.092;2022-10-23T13:42:53;98567.22;;;24.03;55.33
23953;BME280;12163;49.316;6.092;2022-10-23T13:45:23;98587.28;;;24.04;55.54
23953;BME280;12163;49.316;6.092;2022-10-23T13:47:50;98574.66;;;24.13;55.20
23953;BME280;12163;49.316;6.092;2022-10-23T13:50:18;98558.13;;;24.20;54.95
23953;BME280;12163;49.316;6.092;2022-10-23T13:52:44;98571.50;;;24.14;54.78
23953;BME280;12163;49.316;6.092;2022-10-23T13:55:21;98586.09;;;24.01;54.83
23953;BME280;12163;49.316;6.092;2022-10-23T13:57:48;98593.19;;;23.88;55.15
23953;BME280;12163;49.316;6.092;2022-10-23T14:00:15;98586.50;;;23.72;55.98
23953;BME280;12163;49.316;6.092;2022-10-23T14:02:42;98600.66;;;23.60;56.75
23953;BME280;12163;49.316;6.092;2022-10-23T14:05:10;98599.84;;;23.52;56.61
23953;BME280;12163;49.316;6.092;2022-10-23T14:07:37;98604.59;;;23.48;56.97
23953;BME280;12163;49.316;6.092;2022-10-23T14:10:04;98601.03;;;23.41;57.11
23953;BME280;12163;49.316;6.092;2022-10-23T14:12:38;98586.88;;;23.39;57.05
23953;BME280;12163;49.316;6.092;2022-10-23T14:15:05;98579.81;;;23.55;57.15
23953;BME280;12163;49.316;6.092;2022-10-23T14:17:33;98569.19;;;23.85;57.04
23953;BME280;12163;49.316;6.092;2022-10-23T14:20:00;98570.72;;;24.21;55.36
23953;BME280;12163;49.316;6.092;2022-10-23T14:22:31;98560.03;;;24.33;55.05
23953;BME280;12163;49.316;6.092;2022-10-23T14:24:57;98571.41;;;24.39;55.26
23953;BME280;12163;49.316;6.092;2022-10-23T14:27:24;98562.78;;;24.30;55.43
23953;BME280;12163;49.316;6.092;2022-10-23T14:29:50;98571.50;;;24.14;55.32
23953;BME280;12163;49.316;6.092;2022-10-23T14:32:17;98564.44;;;24.03;56.14
23953;BME280;12163;49.316;6.092;2022-10-23T14:34:49;98554.22;;;23.93;55.91
23953;BME280;12163;49.316;6.092;2022-10-23T14:37:16;98553.03;;;23.80;56.98
23953;BME280;12163;49.316;6.092;2022-10-23T14:39:45;98543.59;;;23.64;57.25
23953;BME280;12163;49.316;6.092;2022-10-23T14:42:15;98538.09;;;23.46;57.54
23953;BME280;12163;49.316;6.092;2022-10-23T14:44:42;98547.94;;;23.33;58.06
23953;BME280;12163;49.316;6.092;2022-10-23T14:47:09;98549.09;;;23.18;58.24
23953;BME280;12163;49.316;6.092;2022-10-23T14:49:35;98554.94;;;23.06;59.08
23953;BME280;12163;49.316;6.092;2022-10-23T14:52:02;98565.16;;;22.95;59.36
23953;BME280;12163;49.316;6.092;2022-10-23T14:54:29;98556.50;;;22.86;59.59
23953;BME280;12163;49.316;6.092;2022-10-23T14:56:58;98563.13;;;22.78;60.20
23953;BME280;12163;49.316;6.092;2022-10-23T14:59:24;98549.75;;;22.70;60.63
23953;BME280;12163;49.316;6.092;2022-10-23T15:01:51;98549.38;;;22.64;60.76
23953;BME280;12163;49.316;6.092;2022-10-23T15:04:19;98545.38;;;22.58;60.88
23953;BME280;12163;49.316;6.092;2022-10-23T15:06:46;98553.22;;;22.49;61.46